CCA7 weather

CLOSED Apple River Airport
Apple River, Nova Scotia, Canada

Public forecast

Using degrees Celsius for public forecast. Weather courtesy of forecast.io.

METAR (pilot weather report)

Closest report is CFB Greenwood, 29.0 nm (53.6 km) S. Retrieved 2019/08/21 07:00 UTC (17 minutes ago):

CYZX 210700Z 00000KT 15SM SKC 14/12 A3003 RMK SLP171

TAF (pilot weather forecast)

Closest forecast is CFB Greenwood, 29.0 nm (53.6 km) S. Retrieved 2019/08/21 06:33 UTC (44 minutes ago):

TAF CYZX 210530Z 2106/2206 VRB03KT P6SM SKC BECMG 2114/2115 25007KT FM211700 29010KT P6SM SCT260 FM212200 24006KT P6SM SCT120 BKN240 FM220300 23005KT P6SM BKN080 OVC200 FM220500 24008KT 6SM -SHRA BR SCT015 OVC030 RMK NXT FCST BY 211200Z